createdAt,value
2018-07-11T00:00:42.067Z,83.70
2018-07-11T00:04:50.920Z,84.40
2018-07-11T00:08:54.583Z,84.20
2018-07-11T00:12:58.153Z,83.90
2018-07-11T00:17:10.854Z,84.50
2018-07-11T00:21:14.511Z,83.70
2018-07-11T00:25:21.251Z,83.60
2018-07-11T00:29:34.796Z,83.80
2018-07-11T00:33:39.901Z,83.80
2018-07-11T00:37:43.450Z,83.80
2018-07-11T00:41:54.430Z,84.00
2018-07-11T00:45:58.993Z,83.60
2018-07-11T00:50:07.573Z,83.80
2018-07-11T00:54:11.495Z,84.00
2018-07-11T00:58:49.910Z,84.50
2018-07-11T01:02:53.562Z,83.80
2018-07-11T01:06:57.802Z,85.00
2018-07-11T01:11:04.825Z,84.30
2018-07-11T01:15:08.951Z,83.90
2018-07-11T01:19:12.594Z,84.00
2018-07-11T01:23:18.658Z,84.40
2018-07-11T01:27:22.389Z,83.30
2018-07-11T01:31:26.330Z,83.30
2018-07-11T01:35:30.151Z,83.10
2018-07-11T01:39:33.787Z,83.90
2018-07-11T01:43:37.310Z,84.00
2018-07-11T01:47:41.418Z,84.00
2018-07-11T01:51:56.455Z,82.90
2018-07-11T01:56:00.063Z,82.90
2018-07-11T02:00:03.658Z,82.20
2018-07-11T02:04:09.367Z,82.10
2018-07-11T02:08:12.990Z,79.90
2018-07-11T02:12:16.559Z,81.00
2018-07-11T02:16:20.202Z,81.90
2018-07-11T02:20:29.090Z,81.20
2018-07-11T02:24:32.730Z,81.00
2018-07-11T02:28:36.389Z,80.20
2018-07-11T02:32:40.018Z,80.40
2018-07-11T02:36:43.628Z,80.70
2018-07-11T02:40:47.270Z,82.50
2018-07-11T02:44:51.045Z,81.60
2018-07-11T02:48:54.856Z,81.40
2018-07-11T02:53:03.741Z,80.60
2018-07-11T02:57:07.355Z,83.60
2018-07-11T03:01:10.978Z,82.90
2018-07-11T03:05:14.612Z,82.70
2018-07-11T03:09:19.286Z,81.20
2018-07-11T03:13:22.808Z,81.00
2018-07-11T03:17:26.520Z,80.30
2018-07-11T03:21:33.541Z,78.90
2018-07-11T03:25:37.101Z,81.30
2018-07-11T03:33:44.001Z,79.50
2018-07-11T03:37:47.752Z,81.80
2018-07-11T03:41:51.502Z,81.30
2018-07-11T03:45:55.071Z,80.70
2018-07-11T03:49:58.746Z,82.60
2018-07-11T03:54:03.418Z,81.30
2018-07-11T03:58:07.090Z,82.40
2018-07-11T04:02:10.611Z,84.30
2018-07-11T04:10:17.451Z,79.70
2018-07-11T04:14:21.030Z,79.10
2018-07-11T04:18:27.694Z,81.90
2018-07-11T04:30:37.754Z,80.00
2018-07-11T04:34:41.466Z,80.90
2018-07-11T04:38:45.119Z,79.50
2018-07-11T04:42:48.771Z,82.00
2018-07-11T04:46:52.431Z,80.00
2018-07-11T04:50:56.116Z,81.00
2018-07-11T04:54:59.990Z,79.90
2018-07-11T04:59:03.538Z,81.10
2018-07-11T05:03:07.329Z,80.80
2018-07-11T05:07:10.901Z,83.50
2018-07-11T05:11:14.786Z,82.50
2018-07-11T05:15:18.666Z,78.50
2018-07-11T05:19:22.253Z,77.70
2018-07-11T05:27:29.207Z,76.60
2018-07-11T05:35:46.191Z,78.80
2018-07-11T05:39:49.771Z,80.80
2018-07-11T05:43:53.609Z,80.20
2018-07-11T05:47:57.234Z,79.80
2018-07-11T05:52:01.672Z,79.70
2018-07-11T05:56:07.074Z,79.70
2018-07-11T06:00:13.431Z,80.90
2018-07-11T06:04:16.950Z,78.50
2018-07-11T06:08:20.618Z,76.40
2018-07-11T06:12:27.886Z,76.90
2018-07-11T06:16:31.418Z,75.70
2018-07-11T06:20:34.991Z,77.00
2018-07-11T06:24:43.462Z,74.10
2018-07-11T06:28:47.070Z,74.40
2018-07-11T06:32:50.695Z,75.50
2018-07-11T06:36:55.440Z,76.00
2018-07-11T06:40:59.343Z,76.90
2018-07-11T06:45:02.834Z,77.30
2018-07-11T06:49:06.487Z,75.90
2018-07-11T06:53:13.054Z,75.80
2018-07-11T06:57:16.637Z,76.40
2018-07-11T07:01:20.159Z,73.10
2018-07-11T07:05:24.422Z,76.00
2018-07-11T07:09:30.410Z,76.60
2018-07-11T07:13:34.053Z,77.50
2018-07-11T07:21:45.552Z,77.10
2018-07-11T07:25:49.174Z,73.30
2018-07-11T07:29:52.826Z,65.60
2018-07-11T07:33:56.369Z,62.80
2018-07-11T07:38:02.078Z,61.90
2018-07-11T07:42:06.040Z,60.60
2018-07-11T07:46:09.826Z,59.40
2018-07-11T07:50:17.719Z,61.30
2018-07-11T07:54:21.902Z,60.00
2018-07-11T07:58:30.713Z,62.70
2018-07-11T08:02:34.358Z,65.00
2018-07-11T08:06:38.937Z,65.70
2018-07-11T08:10:42.632Z,63.80
2018-07-11T08:14:46.369Z,64.50
2018-07-11T08:18:50.136Z,61.70
2018-07-11T08:23:14.966Z,58.90
2018-07-11T08:27:34.751Z,58.80
2018-07-11T08:31:49.932Z,62.10
2018-07-11T08:37:01.787Z,61.90
2018-07-11T08:42:18.438Z,63.10
2018-07-11T08:48:38.429Z,65.00
2018-07-11T08:55:02.191Z,62.40
2018-07-11T09:01:37.385Z,65.80
2018-07-11T09:05:55.918Z,67.50
2018-07-11T09:12:22.767Z,67.50
2018-07-11T09:17:39.667Z,68.00
2018-07-11T09:22:11.627Z,67.20
2018-07-11T09:26:16.418Z,69.60
2018-07-11T09:30:20.022Z,69.90
2018-07-11T09:34:23.682Z,68.30
2018-07-11T09:38:29.560Z,66.10
2018-07-11T09:42:33.211Z,66.40
2018-07-11T09:46:36.898Z,65.40
2018-07-11T09:50:40.527Z,64.20
2018-07-11T09:54:44.051Z,62.70
2018-07-11T09:58:48.279Z,61.50
2018-07-11T10:02:52.038Z,63.50
2018-07-11T10:06:56.143Z,62.30
2018-07-11T10:10:59.641Z,62.90
2018-07-11T10:15:03.404Z,63.80
2018-07-11T10:19:07.373Z,65.50
2018-07-11T10:23:10.999Z,63.40
2018-07-11T10:27:14.566Z,62.20
2018-07-11T10:31:18.778Z,63.30
2018-07-11T10:35:24.203Z,62.90
2018-07-11T10:39:27.810Z,61.30
2018-07-11T10:43:31.394Z,60.80
2018-07-11T10:47:38.459Z,61.90
2018-07-11T10:51:42.089Z,62.50
2018-07-11T10:55:45.843Z,62.10
2018-07-11T10:59:51.942Z,63.80
2018-07-11T11:03:57.787Z,63.50
2018-07-11T11:08:02.826Z,63.90
2018-07-11T11:12:06.469Z,62.00
2018-07-11T11:16:10.121Z,63.20
2018-07-11T11:20:15.869Z,62.10
2018-07-11T11:24:20.159Z,59.50
2018-07-11T11:28:27.394Z,61.60
2018-07-11T11:32:31.380Z,61.00
2018-07-11T11:36:35.185Z,62.10
2018-07-11T11:40:39.417Z,61.70
2018-07-11T11:44:45.803Z,62.10
2018-07-11T11:48:49.365Z,61.50
2018-07-11T11:52:53.103Z,61.20
2018-07-11T11:57:00.610Z,63.10
2018-07-11T12:01:04.274Z,62.20
2018-07-11T12:05:08.063Z,62.30
2018-07-11T12:09:16.740Z,63.50
2018-07-11T12:13:21.926Z,63.50
2018-07-11T12:17:25.538Z,64.10
2018-07-11T12:21:32.541Z,65.40
2018-07-11T12:25:36.258Z,64.30
2018-07-11T12:29:39.842Z,66.00
2018-07-11T12:33:46.155Z,65.60
2018-07-11T12:37:50.105Z,67.00
2018-07-11T12:41:54.534Z,66.10
2018-07-11T12:45:58.393Z,66.10
2018-07-11T12:50:02.128Z,67.40
2018-07-11T12:54:07.457Z,66.90
2018-07-11T12:58:11.315Z,67.60
2018-07-11T13:02:15.254Z,65.80
2018-07-11T13:06:26.553Z,66.90
2018-07-11T13:10:30.186Z,67.50
2018-07-11T13:14:37.038Z,67.20
2018-07-11T13:18:40.822Z,64.60
2018-07-11T13:22:44.668Z,61.20
2018-07-11T13:26:50.743Z,62.60
2018-07-11T13:30:56.518Z,61.40
2018-07-11T13:35:00.358Z,58.60
2018-07-11T13:39:04.879Z,58.50
2018-07-11T13:43:08.777Z,61.30
2018-07-11T13:47:19.448Z,60.10
2018-07-11T13:51:23.106Z,53.80
2018-07-11T13:55:26.854Z,60.00
2018-07-11T13:59:30.597Z,56.70
2018-07-11T14:03:34.173Z,57.80
2018-07-11T14:07:42.186Z,61.00
2018-07-11T14:11:46.209Z,58.30
2018-07-11T14:15:49.751Z,59.60
2018-07-11T14:19:53.341Z,58.40
2018-07-11T14:23:57.487Z,59.20
2018-07-11T14:28:01.175Z,59.10
2018-07-11T14:32:06.285Z,59.20
2018-07-11T14:36:12.015Z,60.40
2018-07-11T14:40:19.495Z,60.60
2018-07-11T14:44:25.392Z,61.50
2018-07-11T14:48:30.260Z,62.70
2018-07-11T14:52:33.974Z,64.50
2018-07-11T14:56:41.853Z,65.10
2018-07-11T15:00:47.755Z,65.00
2018-07-11T15:04:51.619Z,68.00
2018-07-11T15:08:59.562Z,66.60
2018-07-11T15:13:04.209Z,66.80
2018-07-11T15:17:08.063Z,67.80
2018-07-11T15:21:12.579Z,68.60
2018-07-11T15:25:16.847Z,67.80
2018-07-11T15:29:23.655Z,69.50
2018-07-11T15:33:30.134Z,71.50
2018-07-11T15:37:35.689Z,71.40
2018-07-11T15:41:41.469Z,70.20
2018-07-11T15:45:47.723Z,72.90
2018-07-11T15:49:54.548Z,71.60
2018-07-11T15:54:03.668Z,72.90
2018-07-11T15:58:09.440Z,73.40
2018-07-11T16:02:15.558Z,74.60
2018-07-11T16:06:19.522Z,75.40
2018-07-11T16:10:31.042Z,74.90
2018-07-11T16:14:35.161Z,74.90
2018-07-11T16:18:38.844Z,75.70
2018-07-11T16:22:42.522Z,76.40
2018-07-11T16:26:48.039Z,74.60
2018-07-11T16:30:53.696Z,74.50
2018-07-11T16:34:58.299Z,74.50
2018-07-11T16:39:04.742Z,74.20
2018-07-11T16:43:08.403Z,74.10
2018-07-11T16:47:18.018Z,74.10
2018-07-11T16:51:21.768Z,74.50
2018-07-11T16:55:26.366Z,73.50
2018-07-11T16:59:34.890Z,73.80
2018-07-11T17:03:48.354Z,74.70
2018-07-11T17:07:52.802Z,74.10
2018-07-11T17:11:56.550Z,72.90
2018-07-11T17:16:06.787Z,72.30
2018-07-11T17:20:11.724Z,72.40
2018-07-11T17:24:17.340Z,72.70
2018-07-11T17:28:29.111Z,72.50
2018-07-11T17:32:36.855Z,69.50
2018-07-11T17:36:41.943Z,70.50
2018-07-11T17:40:47.190Z,69.30
2018-07-11T17:45:10.484Z,69.90
2018-07-11T17:49:26.551Z,70.50
2018-07-11T17:53:40.382Z,71.80
2018-07-11T17:57:56.964Z,73.10
2018-07-11T18:02:05.492Z,73.30
2018-07-11T18:06:22.984Z,74.10
2018-07-11T18:10:36.870Z,74.50
2018-07-11T18:14:51.032Z,75.30
2018-07-11T18:19:38.086Z,76.30
2018-07-11T18:24:57.774Z,76.40
2018-07-11T18:29:21.901Z,76.30
2018-07-11T18:33:37.023Z,76.10
2018-07-11T18:37:58.876Z,77.70
2018-07-11T18:42:15.830Z,78.80
2018-07-11T18:46:30.538Z,79.80
2018-07-11T18:50:51.368Z,79.90
2018-07-11T18:56:06.415Z,81.10
2018-07-11T19:00:21.122Z,82.30
2018-07-11T19:04:41.014Z,81.80
2018-07-11T19:08:56.392Z,82.70
2018-07-11T19:13:00.412Z,82.00
2018-07-11T19:18:14.726Z,82.00
2018-07-11T19:22:26.546Z,82.20
2018-07-11T19:27:15.581Z,83.10
2018-07-11T19:32:05.724Z,83.40
2018-07-11T19:37:23.220Z,83.00
2018-07-11T19:41:40.676Z,83.80
2018-07-11T19:45:53.031Z,82.90
2018-07-11T19:50:05.735Z,84.10
2018-07-11T19:54:17.998Z,84.70
2018-07-11T19:58:23.814Z,83.80
2018-07-11T20:02:29.555Z,84.20
2018-07-11T20:06:33.413Z,84.40
2018-07-11T20:10:39.374Z,84.50
2018-07-11T20:14:43.026Z,84.40
2018-07-11T20:18:46.692Z,84.80
2018-07-11T20:22:54.265Z,84.80
2018-07-11T20:26:57.803Z,84.40
2018-07-11T20:31:01.487Z,84.50
2018-07-11T20:35:09.802Z,84.30
2018-07-11T20:39:13.416Z,84.10
2018-07-11T20:43:17.143Z,84.20
2018-07-11T20:47:23.463Z,82.90
2018-07-11T20:51:27.454Z,82.00
2018-07-11T20:55:31.030Z,82.30
2018-07-11T21:00:47.642Z,82.90
2018-07-11T21:08:20.706Z,82.50
2018-07-11T21:12:45.231Z,84.00
2018-07-11T21:19:10.230Z,86.90
2018-07-11T21:23:14.887Z,87.30
2018-07-11T21:27:23.650Z,88.00
2018-07-11T21:31:28.395Z,88.00
2018-07-11T21:35:32.094Z,87.90
2018-07-11T21:39:41.070Z,88.40
2018-07-11T21:43:51.508Z,88.60
2018-07-11T21:47:58.932Z,88.20
2018-07-11T21:52:04.827Z,87.70
2018-07-11T21:56:11.904Z,88.20
2018-07-11T22:00:31.147Z,87.90
2018-07-11T22:04:34.775Z,88.50
2018-07-11T22:08:44.981Z,88.90
2018-07-11T22:12:48.831Z,89.30
2018-07-11T22:16:56.694Z,89.00
2018-07-11T22:21:01.915Z,88.70
2018-07-11T22:25:04.716Z,89.20
2018-07-11T22:29:08.533Z,88.60
2018-07-11T22:33:12.101Z,89.00
2018-07-11T22:37:14.851Z,89.70
2018-07-11T22:41:17.230Z,89.10
2018-07-11T22:45:23.266Z,89.40
2018-07-11T22:49:26.864Z,89.40
2018-07-11T22:53:31.372Z,89.10
2018-07-11T22:57:34.910Z,88.50
2018-07-11T23:01:37.929Z,88.90
2018-07-11T23:05:41.596Z,89.20
2018-07-11T23:09:45.506Z,89.50
2018-07-11T23:13:49.567Z,89.50
2018-07-11T23:17:51.925Z,90.10
2018-07-11T23:21:55.219Z,90.00
2018-07-11T23:25:57.572Z,90.00
2018-07-11T23:30:00.333Z,90.00
2018-07-11T23:34:05.891Z,89.40
2018-07-11T23:38:08.303Z,90.00
2018-07-11T23:42:10.671Z,89.40
2018-07-11T23:46:13.063Z,89.40
2018-07-11T23:50:20.878Z,89.70
2018-07-11T23:54:23.363Z,90.20
2018-07-11T23:58:25.861Z,89.90
